Long Point, Minnesota
Current Conditions -  °F | °C
As of 4:53 AM on Friday 28 Nov 2014 (Local Time) from KBDE Reporting Station
Broken Clouds Broken Clouds  
Wind Chill: -7°   Ceiling: 7000
Heat Index:   Visibility: 10mi
Dew Point: -2°   Wind: 7mph
Humidity: 73%   Direction: 80°E
Pressure: 30.04"   Gusts: NA
Location:  48.7484°N, 94.9438°W
Report Text: KBDE 281053Z AUTO 08006KT 10SM BKN070 M15/M19 A3004 RMK AO2 SLP204 T11501189 TSNO
Loading
Personal Weather Stations






























Interactive Weather Map New forecast layout! Learn more

10-Day Weather Forecast

Advertisements
Track Severe Weather on mobile